sensor_id;sensor_type;location;lat;lon;timestamp;P1;durP1;ratioP1;P2;durP2;ratioP2
25569;SDS011;17955;45.542;9.238;2023-04-06T00:00:50;13.15;;;5.95;;
25569;SDS011;17955;45.542;9.238;2023-04-06T00:03:18;8.18;;;5.03;;
25569;SDS011;17955;45.542;9.238;2023-04-06T00:05:46;10.65;;;5.32;;
25569;SDS011;17955;45.542;9.238;2023-04-06T00:08:13;12.27;;;5.50;;
25569;SDS011;17955;45.542;9.238;2023-04-06T00:10:41;7.15;;;5.13;;
25569;SDS011;17955;45.542;9.238;2023-04-06T00:13:08;6.63;;;4.35;;
25569;SDS011;17955;45.542;9.238;2023-04-06T00:15:37;7.82;;;3.90;;
25569;SDS011;17955;45.542;9.238;2023-04-06T00:18:04;8.82;;;4.78;;
25569;SDS011;17955;45.542;9.238;2023-04-06T00:20:32;10.95;;;5.80;;
25569;SDS011;17955;45.542;9.238;2023-04-06T00:22:59;6.85;;;4.90;;
25569;SDS011;17955;45.542;9.238;2023-04-06T00:25:26;11.38;;;5.38;;
25569;SDS011;17955;45.542;9.238;2023-04-06T00:27:54;10.93;;;5.32;;
25569;SDS011;17955;45.542;9.238;2023-04-06T00:30:21;10.02;;;6.00;;
25569;SDS011;17955;45.542;9.238;2023-04-06T00:32:50;9.93;;;5.53;;
25569;SDS011;17955;45.542;9.238;2023-04-06T00:35:17;9.25;;;6.10;;
25569;SDS011;17955;45.542;9.238;2023-04-06T00:37:45;10.93;;;5.93;;
25569;SDS011;17955;45.542;9.238;2023-04-06T00:40:13;21.13;;;6.75;;
25569;SDS011;17955;45.542;9.238;2023-04-06T00:42:41;9.55;;;6.03;;
25569;SDS011;17955;45.542;9.238;2023-04-06T00:45:09;13.65;;;7.10;;
25569;SDS011;17955;45.542;9.238;2023-04-06T00:47:38;8.50;;;4.88;;
25569;SDS011;17955;45.542;9.238;2023-04-06T00:50:07;10.32;;;6.00;;
25569;SDS011;17955;45.542;9.238;2023-04-06T00:52:34;9.43;;;5.80;;
25569;SDS011;17955;45.542;9.238;2023-04-06T00:55:04;12.07;;;5.65;;
25569;SDS011;17955;45.542;9.238;2023-04-06T00:57:36;11.70;;;6.30;;
25569;SDS011;17955;45.542;9.238;2023-04-06T01:00:04;11.30;;;6.30;;
25569;SDS011;17955;45.542;9.238;2023-04-06T01:02:32;11.52;;;6.10;;
25569;SDS011;17955;45.542;9.238;2023-04-06T01:04:59;15.63;;;6.00;;
25569;SDS011;17955;45.542;9.238;2023-04-06T01:07:35;8.82;;;6.43;;
25569;SDS011;17955;45.542;9.238;2023-04-06T01:10:22;9.77;;;5.13;;
25569;SDS011;17955;45.542;9.238;2023-04-06T01:12:51;7.47;;;5.32;;
25569;SDS011;17955;45.542;9.238;2023-04-06T01:15:37;10.57;;;5.82;;
25569;SDS011;17955;45.542;9.238;2023-04-06T01:18:07;13.70;;;5.93;;
25569;SDS011;17955;45.542;9.238;2023-04-06T01:20:38;12.18;;;5.97;;
25569;SDS011;17955;45.542;9.238;2023-04-06T01:23:08;10.65;;;5.80;;
25569;SDS011;17955;45.542;9.238;2023-04-06T01:25:41;10.77;;;6.53;;
25569;SDS011;17955;45.542;9.238;2023-04-06T01:28:08;9.00;;;5.40;;
25569;SDS011;17955;45.542;9.238;2023-04-06T01:30:57;11.32;;;4.95;;
25569;SDS011;17955;45.542;9.238;2023-04-06T01:33:47;14.73;;;6.45;;
25569;SDS011;17955;45.542;9.238;2023-04-06T01:36:17;12.73;;;6.55;;
25569;SDS011;17955;45.542;9.238;2023-04-06T01:38:52;12.77;;;7.15;;
25569;SDS011;17955;45.542;9.238;2023-04-06T01:41:27;10.98;;;6.25;;
25569;SDS011;17955;45.542;9.238;2023-04-06T01:43:54;10.45;;;6.20;;
25569;SDS011;17955;45.542;9.238;2023-04-06T01:46:27;8.00;;;5.85;;
25569;SDS011;17955;45.542;9.238;2023-04-06T01:48:55;9.63;;;5.82;;
25569;SDS011;17955;45.542;9.238;2023-04-06T01:51:34;11.45;;;5.95;;
25569;SDS011;17955;45.542;9.238;2023-04-06T01:54:06;11.85;;;5.78;;
25569;SDS011;17955;45.542;9.238;2023-04-06T01:56:53;10.15;;;5.80;;
25569;SDS011;17955;45.542;9.238;2023-04-06T01:59:29;12.27;;;6.40;;
25569;SDS011;17955;45.542;9.238;2023-04-06T02:01:59;11.20;;;6.25;;
25569;SDS011;17955;45.542;9.238;2023-04-06T02:04:28;13.65;;;6.00;;
25569;SDS011;17955;45.542;9.238;2023-04-06T02:07:05;10.18;;;6.03;;
25569;SDS011;17955;45.542;9.238;2023-04-06T02:09:34;11.25;;;5.93;;
25569;SDS011;17955;45.542;9.238;2023-04-06T02:12:03;10.13;;;5.95;;
25569;SDS011;17955;45.542;9.238;2023-04-06T02:14:32;9.77;;;5.65;;
25569;SDS011;17955;45.542;9.238;2023-04-06T02:17:00;10.05;;;6.07;;
25569;SDS011;17955;45.542;9.238;2023-04-06T02:19:27;12.00;;;5.40;;
25569;SDS011;17955;45.542;9.238;2023-04-06T02:21:55;12.27;;;5.78;;
25569;SDS011;17955;45.542;9.238;2023-04-06T02:24:22;11.98;;;6.10;;
25569;SDS011;17955;45.542;9.238;2023-04-06T02:26:51;10.98;;;6.32;;
25569;SDS011;17955;45.542;9.238;2023-04-06T02:29:18;9.95;;;5.85;;
25569;SDS011;17955;45.542;9.238;2023-04-06T02:31:47;8.35;;;5.28;;
25569;SDS011;17955;45.542;9.238;2023-04-06T02:34:15;11.32;;;5.25;;
25569;SDS011;17955;45.542;9.238;2023-04-06T02:36:47;9.80;;;4.95;;
25569;SDS011;17955;45.542;9.238;2023-04-06T02:39:14;9.77;;;5.40;;
25569;SDS011;17955;45.542;9.238;2023-04-06T02:41:41;14.80;;;6.43;;
25569;SDS011;17955;45.542;9.238;2023-04-06T02:44:12;12.13;;;6.43;;
25569;SDS011;17955;45.542;9.238;2023-04-06T02:46:42;9.50;;;5.28;;
25569;SDS011;17955;45.542;9.238;2023-04-06T02:49:09;11.88;;;6.07;;
25569;SDS011;17955;45.542;9.238;2023-04-06T02:51:37;11.65;;;6.10;;
25569;SDS011;17955;45.542;9.238;2023-04-06T02:54:27;10.25;;;4.82;;
25569;SDS011;17955;45.542;9.238;2023-04-06T02:56:54;10.32;;;5.78;;
25569;SDS011;17955;45.542;9.238;2023-04-06T02:59:29;11.77;;;6.10;;
25569;SDS011;17955;45.542;9.238;2023-04-06T03:02:04;10.70;;;6.60;;
25569;SDS011;17955;45.542;9.238;2023-04-06T03:04:32;7.90;;;5.10;;
25569;SDS011;17955;45.542;9.238;2023-04-06T03:07:02;7.68;;;5.25;;
25569;SDS011;17955;45.542;9.238;2023-04-06T03:09:36;11.73;;;6.28;;
25569;SDS011;17955;45.542;9.238;2023-04-06T03:12:04;13.00;;;6.78;;
25569;SDS011;17955;45.542;9.238;2023-04-06T03:14:41;12.98;;;6.68;;
25569;SDS011;17955;45.542;9.238;2023-04-06T03:17:09;12.32;;;6.05;;
25569;SDS011;17955;45.542;9.238;2023-04-06T03:19:36;8.70;;;5.25;;
25569;SDS011;17955;45.542;9.238;2023-04-06T03:22:04;9.02;;;5.75;;
25569;SDS011;17955;45.542;9.238;2023-04-06T03:24:31;8.73;;;5.28;;
25569;SDS011;17955;45.542;9.238;2023-04-06T03:26:59;10.90;;;5.93;;
25569;SDS011;17955;45.542;9.238;2023-04-06T03:29:27;8.15;;;5.13;;
25569;SDS011;17955;45.542;9.238;2023-04-06T03:31:56;11.15;;;5.60;;
25569;SDS011;17955;45.542;9.238;2023-04-06T03:34:37;8.90;;;5.70;;
25569;SDS011;17955;45.542;9.238;2023-04-06T03:37:04;11.82;;;5.85;;
25569;SDS011;17955;45.542;9.238;2023-04-06T03:39:32;11.05;;;5.57;;
25569;SDS011;17955;45.542;9.238;2023-04-06T03:42:00;9.88;;;5.72;;
25569;SDS011;17955;45.542;9.238;2023-04-06T03:44:41;10.25;;;5.60;;
25569;SDS011;17955;45.542;9.238;2023-04-06T03:47:09;11.20;;;5.40;;
25569;SDS011;17955;45.542;9.238;2023-04-06T03:49:37;9.43;;;5.90;;
25569;SDS011;17955;45.542;9.238;2023-04-06T03:52:06;11.30;;;5.75;;
25569;SDS011;17955;45.542;9.238;2023-04-06T03:54:33;9.60;;;5.47;;
25569;SDS011;17955;45.542;9.238;2023-04-06T03:57:01;9.30;;;6.03;;
25569;SDS011;17955;45.542;9.238;2023-04-06T03:59:29;8.90;;;5.30;;
25569;SDS011;17955;45.542;9.238;2023-04-06T04:01:56;9.13;;;5.22;;
25569;SDS011;17955;45.542;9.238;2023-04-06T04:04:25;11.43;;;5.45;;
25569;SDS011;17955;45.542;9.238;2023-04-06T04:06:52;12.52;;;5.97;;
25569;SDS011;17955;45.542;9.238;2023-04-06T04:09:19;9.05;;;5.68;;
25569;SDS011;17955;45.542;9.238;2023-04-06T04:11:47;10.80;;;5.72;;
25569;SDS011;17955;45.542;9.238;2023-04-06T04:14:14;9.55;;;5.97;;
25569;SDS011;17955;45.542;9.238;2023-04-06T04:16:42;12.73;;;5.60;;
25569;SDS011;17955;45.542;9.238;2023-04-06T04:19:09;9.02;;;5.28;;
25569;SDS011;17955;45.542;9.238;2023-04-06T04:21:43;9.30;;;5.03;;
25569;SDS011;17955;45.542;9.238;2023-04-06T04:26:40;11.10;;;5.93;;
25569;SDS011;17955;45.542;9.238;2023-04-06T04:29:07;11.40;;;6.15;;
25569;SDS011;17955;45.542;9.238;2023-04-06T04:31:36;9.10;;;5.28;;
25569;SDS011;17955;45.542;9.238;2023-04-06T04:34:09;12.77;;;5.72;;
25569;SDS011;17955;45.542;9.238;2023-04-06T04:36:37;11.57;;;5.57;;
25569;SDS011;17955;45.542;9.238;2023-04-06T04:39:09;7.15;;;4.75;;
25569;SDS011;17955;45.542;9.238;2023-04-06T04:41:41;8.88;;;4.90;;
25569;SDS011;17955;45.542;9.238;2023-04-06T04:44:11;9.63;;;4.95;;
25569;SDS011;17955;45.542;9.238;2023-04-06T04:46:38;12.15;;;5.40;;
25569;SDS011;17955;45.542;9.238;2023-04-06T04:49:08;11.38;;;5.03;;
25569;SDS011;17955;45.542;9.238;2023-04-06T04:51:35;11.07;;;4.93;;
25569;SDS011;17955;45.542;9.238;2023-04-06T04:54:11;9.77;;;5.43;;
25569;SDS011;17955;45.542;9.238;2023-04-06T04:56:39;12.75;;;5.53;;
25569;SDS011;17955;45.542;9.238;2023-04-06T04:59:18;10.45;;;4.93;;
25569;SDS011;17955;45.542;9.238;2023-04-06T05:01:53;10.73;;;5.30;;
25569;SDS011;17955;45.542;9.238;2023-04-06T05:04:24;8.95;;;5.10;;
25569;SDS011;17955;45.542;9.238;2023-04-06T05:07:01;16.52;;;7.30;;
25569;SDS011;17955;45.542;9.238;2023-04-06T05:09:31;8.80;;;5.10;;
25569;SDS011;17955;45.542;9.238;2023-04-06T05:11:59;16.83;;;6.00;;
25569;SDS011;17955;45.542;9.238;2023-04-06T05:14:29;13.40;;;5.93;;
25569;SDS011;17955;45.542;9.238;2023-04-06T05:16:58;16.88;;;6.22;;
25569;SDS011;17955;45.542;9.238;2023-04-06T05:19:25;14.32;;;5.80;;
25569;SDS011;17955;45.542;9.238;2023-04-06T05:21:53;12.02;;;5.57;;
25569;SDS011;17955;45.542;9.238;2023-04-06T05:24:20;14.57;;;5.28;;
25569;SDS011;17955;45.542;9.238;2023-04-06T05:26:49;11.63;;;5.47;;
25569;SDS011;17955;45.542;9.238;2023-04-06T05:29:21;10.32;;;5.05;;
25569;SDS011;17955;45.542;9.238;2023-04-06T05:31:50;7.97;;;5.22;;
25569;SDS011;17955;45.542;9.238;2023-04-06T05:34:18;10.70;;;5.32;;
25569;SDS011;17955;45.542;9.238;2023-04-06T05:36:47;10.25;;;5.30;;
25569;SDS011;17955;45.542;9.238;2023-04-06T05:39:20;11.95;;;6.07;;
25569;SDS011;17955;45.542;9.238;2023-04-06T05:41:53;9.43;;;5.38;;
25569;SDS011;17955;45.542;9.238;2023-04-06T05:44:31;8.60;;;5.35;;
25569;SDS011;17955;45.542;9.238;2023-04-06T05:47:07;14.50;;;5.30;;
25569;SDS011;17955;45.542;9.238;2023-04-06T05:49:36;11.90;;;5.05;;
25569;SDS011;17955;45.542;9.238;2023-04-06T05:52:07;13.00;;;5.30;;
25569;SDS011;17955;45.542;9.238;2023-04-06T05:54:35;9.10;;;5.38;;
25569;SDS011;17955;45.542;9.238;2023-04-06T05:57:04;9.60;;;5.45;;
25569;SDS011;17955;45.542;9.238;2023-04-06T05:59:32;12.23;;;5.97;;
25569;SDS011;17955;45.542;9.238;2023-04-06T06:01:59;11.95;;;6.70;;
25569;SDS011;17955;45.542;9.238;2023-04-06T06:04:30;11.02;;;5.88;;
25569;SDS011;17955;45.542;9.238;2023-04-06T06:06:58;13.25;;;6.72;;
25569;SDS011;17955;45.542;9.238;2023-04-06T06:09:34;16.73;;;6.43;;
25569;SDS011;17955;45.542;9.238;2023-04-06T06:12:15;14.63;;;6.35;;
25569;SDS011;17955;45.542;9.238;2023-04-06T06:14:42;10.88;;;6.28;;
25569;SDS011;17955;45.542;9.238;2023-04-06T06:17:10;16.67;;;7.55;;
25569;SDS011;17955;45.542;9.238;2023-04-06T06:19:37;15.35;;;6.97;;
25569;SDS011;17955;45.542;9.238;2023-04-06T06:22:07;25.75;;;7.88;;
25569;SDS011;17955;45.542;9.238;2023-04-06T06:24:38;19.15;;;7.07;;
25569;SDS011;17955;45.542;9.238;2023-04-06T06:27:07;18.52;;;7.30;;
25569;SDS011;17955;45.542;9.238;2023-04-06T06:29:38;10.57;;;7.30;;
25569;SDS011;17955;45.542;9.238;2023-04-06T06:32:05;15.70;;;6.43;;
25569;SDS011;17955;45.542;9.238;2023-04-06T06:34:35;14.75;;;7.88;;
25569;SDS011;17955;45.542;9.238;2023-04-06T06:37:05;11.65;;;6.95;;
25569;SDS011;17955;45.542;9.238;2023-04-06T06:39:33;19.73;;;7.30;;
25569;SDS011;17955;45.542;9.238;2023-04-06T06:42:01;12.57;;;6.57;;
25569;SDS011;17955;45.542;9.238;2023-04-06T06:45:00;18.50;;;6.45;;
25569;SDS011;17955;45.542;9.238;2023-04-06T06:47:27;17.33;;;6.70;;
25569;SDS011;17955;45.542;9.238;2023-04-06T06:49:55;12.57;;;6.53;;
25569;SDS011;17955;45.542;9.238;2023-04-06T06:52:22;11.52;;;5.82;;
25569;SDS011;17955;45.542;9.238;2023-04-06T06:54:50;10.30;;;6.15;;
25569;SDS011;17955;45.542;9.238;2023-04-06T06:57:18;12.57;;;6.45;;
25569;SDS011;17955;45.542;9.238;2023-04-06T06:59:47;9.02;;;5.78;;
25569;SDS011;17955;45.542;9.238;2023-04-06T07:02:16;9.30;;;5.18;;
25569;SDS011;17955;45.542;9.238;2023-04-06T07:04:43;10.60;;;5.25;;
25569;SDS011;17955;45.542;9.238;2023-04-06T07:07:10;14.38;;;5.60;;
25569;SDS011;17955;45.542;9.238;2023-04-06T07:09:38;14.13;;;5.65;;
25569;SDS011;17955;45.542;9.238;2023-04-06T07:12:05;9.27;;;5.25;;
25569;SDS011;17955;45.542;9.238;2023-04-06T07:14:33;9.18;;;5.38;;
25569;SDS011;17955;45.542;9.238;2023-04-06T07:17:02;9.93;;;4.90;;
25569;SDS011;17955;45.542;9.238;2023-04-06T07:19:31;12.18;;;4.78;;
25569;SDS011;17955;45.542;9.238;2023-04-06T07:21:59;12.52;;;5.18;;
25569;SDS011;17955;45.542;9.238;2023-04-06T07:24:27;10.43;;;5.22;;
25569;SDS011;17955;45.542;9.238;2023-04-06T07:26:55;7.93;;;5.00;;
25569;SDS011;17955;45.542;9.238;2023-04-06T07:29:22;6.95;;;4.10;;
25569;SDS011;17955;45.542;9.238;2023-04-06T07:31:50;6.65;;;4.03;;
25569;SDS011;17955;45.542;9.238;2023-04-06T07:34:19;9.05;;;3.60;;
25569;SDS011;17955;45.542;9.238;2023-04-06T07:36:48;7.03;;;4.63;;
25569;SDS011;17955;45.542;9.238;2023-04-06T07:39:15;6.45;;;3.85;;
25569;SDS011;17955;45.542;9.238;2023-04-06T07:41:44;8.05;;;4.32;;
25569;SDS011;17955;45.542;9.238;2023-04-06T07:44:11;9.73;;;3.85;;
25569;SDS011;17955;45.542;9.238;2023-04-06T07:46:38;13.65;;;4.45;;
25569;SDS011;17955;45.542;9.238;2023-04-06T07:49:06;9.50;;;4.70;;
25569;SDS011;17955;45.542;9.238;2023-04-06T07:51:35;11.02;;;3.83;;
25569;SDS011;17955;45.542;9.238;2023-04-06T07:54:04;11.90;;;4.50;;
25569;SDS011;17955;45.542;9.238;2023-04-06T07:56:31;9.20;;;4.75;;
25569;SDS011;17955;45.542;9.238;2023-04-06T07:58:58;11.65;;;5.00;;
25569;SDS011;17955;45.542;9.238;2023-04-06T08:01:26;8.40;;;4.20;;
25569;SDS011;17955;45.542;9.238;2023-04-06T08:03:54;8.10;;;4.70;;
25569;SDS011;17955;45.542;9.238;2023-04-06T08:06:22;7.20;;;4.45;;
25569;SDS011;17955;45.542;9.238;2023-04-06T08:08:49;11.52;;;4.55;;
25569;SDS011;17955;45.542;9.238;2023-04-06T08:11:18;7.60;;;4.15;;
25569;SDS011;17955;45.542;9.238;2023-04-06T08:13:45;15.80;;;4.32;;
25569;SDS011;17955;45.542;9.238;2023-04-06T08:16:13;9.15;;;4.72;;
25569;SDS011;17955;45.542;9.238;2023-04-06T08:18:40;6.50;;;3.53;;
25569;SDS011;17955;45.542;9.238;2023-04-06T08:21:08;7.57;;;4.68;;
25569;SDS011;17955;45.542;9.238;2023-04-06T08:23:35;8.13;;;4.55;;
25569;SDS011;17955;45.542;9.238;2023-04-06T08:26:02;11.07;;;4.20;;
25569;SDS011;17955;45.542;9.238;2023-04-06T08:28:31;6.45;;;3.65;;
25569;SDS011;17955;45.542;9.238;2023-04-06T08:31:02;9.70;;;4.82;;
25569;SDS011;17955;45.542;9.238;2023-04-06T08:33:30;9.40;;;4.35;;
25569;SDS011;17955;45.542;9.238;2023-04-06T08:36:05;13.00;;;4.65;;
25569;SDS011;17955;45.542;9.238;2023-04-06T08:38:33;9.80;;;4.30;;
25569;SDS011;17955;45.542;9.238;2023-04-06T08:41:05;7.47;;;4.28;;
25569;SDS011;17955;45.542;9.238;2023-04-06T08:43:34;7.05;;;3.67;;
25569;SDS011;17955;45.542;9.238;2023-04-06T08:46:17;9.20;;;4.03;;
25569;SDS011;17955;45.542;9.238;2023-04-06T08:48:55;10.20;;;4.47;;
25569;SDS011;17955;45.542;9.238;2023-04-06T08:51:24;8.90;;;4.47;;
25569;SDS011;17955;45.542;9.238;2023-04-06T08:53:52;10.20;;;4.35;;
25569;SDS011;17955;45.542;9.238;2023-04-06T08:56:20;8.20;;;4.60;;
25569;SDS011;17955;45.542;9.238;2023-04-06T08:58:49;12.52;;;3.67;;
25569;SDS011;17955;45.542;9.238;2023-04-06T09:01:18;11.90;;;5.00;;
25569;SDS011;17955;45.542;9.238;2023-04-06T09:03:48;10.90;;;4.65;;
25569;SDS011;17955;45.542;9.238;2023-04-06T09:06:16;14.05;;;5.20;;
25569;SDS011;17955;45.542;9.238;2023-04-06T09:08:43;7.43;;;4.65;;
25569;SDS011;17955;45.542;9.238;2023-04-06T09:11:11;8.25;;;5.03;;
25569;SDS011;17955;45.542;9.238;2023-04-06T09:13:44;6.43;;;3.88;;
25569;SDS011;17955;45.542;9.238;2023-04-06T09:16:13;13.57;;;5.35;;
25569;SDS011;17955;45.542;9.238;2023-04-06T09:18:41;9.05;;;3.97;;
25569;SDS011;17955;45.542;9.238;2023-04-06T09:21:08;9.23;;;4.53;;
25569;SDS011;17955;45.542;9.238;2023-04-06T09:23:35;13.82;;;4.63;;
25569;SDS011;17955;45.542;9.238;2023-04-06T09:26:07;9.52;;;4.50;;
25569;SDS011;17955;45.542;9.238;2023-04-06T09:28:41;9.40;;;4.50;;
25569;SDS011;17955;45.542;9.238;2023-04-06T09:31:09;6.43;;;3.47;;
25569;SDS011;17955;45.542;9.238;2023-04-06T09:33:38;9.50;;;4.90;;
25569;SDS011;17955;45.542;9.238;2023-04-06T09:36:06;9.15;;;5.03;;
25569;SDS011;17955;45.542;9.238;2023-04-06T09:38:36;9.52;;;5.43;;
25569;SDS011;17955;45.542;9.238;2023-04-06T09:41:03;8.45;;;4.43;;
25569;SDS011;17955;45.542;9.238;2023-04-06T09:43:31;9.93;;;6.38;;
25569;SDS011;17955;45.542;9.238;2023-04-06T09:45:58;9.48;;;5.30;;
25569;SDS011;17955;45.542;9.238;2023-04-06T09:48:29;10.48;;;5.20;;
25569;SDS011;17955;45.542;9.238;2023-04-06T09:51:00;8.05;;;4.72;;
25569;SDS011;17955;45.542;9.238;2023-04-06T09:53:30;8.55;;;5.00;;
25569;SDS011;17955;45.542;9.238;2023-04-06T09:55:58;12.57;;;5.05;;
25569;SDS011;17955;45.542;9.238;2023-04-06T09:58:30;11.23;;;5.22;;
25569;SDS011;17955;45.542;9.238;2023-04-06T10:01:01;13.80;;;5.63;;
25569;SDS011;17955;45.542;9.238;2023-04-06T10:03:31;12.70;;;5.97;;
25569;SDS011;17955;45.542;9.238;2023-04-06T10:06:05;7.80;;;5.30;;
25569;SDS011;17955;45.542;9.238;2023-04-06T10:08:33;10.18;;;5.65;;
25569;SDS011;17955;45.542;9.238;2023-04-06T10:11:01;9.90;;;5.28;;
25569;SDS011;17955;45.542;9.238;2023-04-06T10:13:30;10.82;;;6.10;;
25569;SDS011;17955;45.542;9.238;2023-04-06T10:15:58;9.10;;;5.13;;
25569;SDS011;17955;45.542;9.238;2023-04-06T10:18:26;14.98;;;5.53;;
25569;SDS011;17955;45.542;9.238;2023-04-06T10:20:54;9.82;;;5.57;;
25569;SDS011;17955;45.542;9.238;2023-04-06T10:23:26;12.75;;;6.22;;
25569;SDS011;17955;45.542;9.238;2023-04-06T10:25:54;10.35;;;5.63;;
25569;SDS011;17955;45.542;9.238;2023-04-06T10:28:22;9.90;;;5.65;;
25569;SDS011;17955;45.542;9.238;2023-04-06T10:30:56;13.23;;;6.50;;
25569;SDS011;17955;45.542;9.238;2023-04-06T10:33:23;11.38;;;5.57;;
25569;SDS011;17955;45.542;9.238;2023-04-06T10:35:50;17.40;;;6.53;;
25569;SDS011;17955;45.542;9.238;2023-04-06T10:38:19;9.45;;;5.47;;
25569;SDS011;17955;45.542;9.238;2023-04-06T10:40:49;9.88;;;5.90;;
25569;SDS011;17955;45.542;9.238;2023-04-06T10:43:18;14.75;;;5.72;;
25569;SDS011;17955;45.542;9.238;2023-04-06T10:45:52;11.05;;;5.47;;
25569;SDS011;17955;45.542;9.238;2023-04-06T10:48:21;11.77;;;7.32;;
25569;SDS011;17955;45.542;9.238;2023-04-06T10:50:49;9.57;;;5.50;;
25569;SDS011;17955;45.542;9.238;2023-04-06T10:53:20;11.88;;;6.43;;
25569;SDS011;17955;45.542;9.238;2023-04-06T10:55:50;13.48;;;6.00;;
25569;SDS011;17955;45.542;9.238;2023-04-06T10:58:18;8.50;;;5.57;;
25569;SDS011;17955;45.542;9.238;2023-04-06T11:00:45;10.80;;;6.15;;
25569;SDS011;17955;45.542;9.238;2023-04-06T11:03:13;12.13;;;6.57;;
25569;SDS011;17955;45.542;9.238;2023-04-06T11:05:43;9.93;;;6.18;;
25569;SDS011;17955;45.542;9.238;2023-04-06T11:08:21;11.32;;;6.03;;
25569;SDS011;17955;45.542;9.238;2023-04-06T11:10:50;11.73;;;6.15;;
25569;SDS011;17955;45.542;9.238;2023-04-06T11:13:17;11.07;;;6.05;;
25569;SDS011;17955;45.542;9.238;2023-04-06T11:15:45;8.90;;;6.10;;
25569;SDS011;17955;45.542;9.238;2023-04-06T11:18:16;10.43;;;5.93;;
25569;SDS011;17955;45.542;9.238;2023-04-06T11:20:47;13.25;;;5.97;;
25569;SDS011;17955;45.542;9.238;2023-04-06T11:23:21;13.93;;;5.60;;
25569;SDS011;17955;45.542;9.238;2023-04-06T11:25:51;12.80;;;6.05;;
25569;SDS011;17955;45.542;9.238;2023-04-06T11:28:19;9.05;;;6.10;;
25569;SDS011;17955;45.542;9.238;2023-04-06T11:30:46;12.57;;;6.38;;
25569;SDS011;17955;45.542;9.238;2023-04-06T11:33:19;11.40;;;6.97;;
25569;SDS011;17955;45.542;9.238;2023-04-06T11:35:47;13.18;;;6.20;;
25569;SDS011;17955;45.542;9.238;2023-04-06T11:38:15;10.55;;;6.80;;
25569;SDS011;17955;45.542;9.238;2023-04-06T11:40:42;11.98;;;6.50;;
25569;SDS011;17955;45.542;9.238;2023-04-06T11:43:12;12.50;;;7.00;;
25569;SDS011;17955;45.542;9.238;2023-04-06T11:45:41;9.80;;;5.70;;
25569;SDS011;17955;45.542;9.238;2023-04-06T11:48:17;9.77;;;4.53;;
25569;SDS011;17955;45.542;9.238;2023-04-06T11:50:46;9.82;;;6.15;;
25569;SDS011;17955;45.542;9.238;2023-04-06T11:53:14;11.52;;;5.45;;
25569;SDS011;17955;45.542;9.238;2023-04-06T11:55:41;10.43;;;4.70;;
25569;SDS011;17955;45.542;9.238;2023-04-06T11:58:13;11.77;;;6.53;;
25569;SDS011;17955;45.542;9.238;2023-04-06T12:00:41;11.30;;;6.10;;
25569;SDS011;17955;45.542;9.238;2023-04-06T12:03:10;13.40;;;7.03;;
25569;SDS011;17955;45.542;9.238;2023-04-06T12:05:38;10.13;;;6.03;;
25569;SDS011;17955;45.542;9.238;2023-04-06T12:08:05;9.77;;;5.72;;
25569;SDS011;17955;45.542;9.238;2023-04-06T12:10:33;13.23;;;6.43;;
25569;SDS011;17955;45.542;9.238;2023-04-06T12:13:00;13.13;;;6.38;;
25569;SDS011;17955;45.542;9.238;2023-04-06T12:15:29;11.25;;;6.65;;
25569;SDS011;17955;45.542;9.238;2023-04-06T12:17:56;12.65;;;5.95;;
25569;SDS011;17955;45.542;9.238;2023-04-06T12:20:24;12.48;;;5.82;;
25569;SDS011;17955;45.542;9.238;2023-04-06T12:22:51;14.15;;;6.47;;
25569;SDS011;17955;45.542;9.238;2023-04-06T12:25:18;16.85;;;5.68;;
25569;SDS011;17955;45.542;9.238;2023-04-06T12:27:46;22.10;;;6.05;;
25569;SDS011;17955;45.542;9.238;2023-04-06T12:30:13;11.57;;;5.75;;
25569;SDS011;17955;45.542;9.238;2023-04-06T12:32:42;12.93;;;5.82;;
25569;SDS011;17955;45.542;9.238;2023-04-06T12:35:10;10.68;;;6.38;;
25569;SDS011;17955;45.542;9.238;2023-04-06T12:37:41;9.02;;;6.07;;
25569;SDS011;17955;45.542;9.238;2023-04-06T12:40:08;12.15;;;6.70;;
25569;SDS011;17955;45.542;9.238;2023-04-06T12:42:38;11.18;;;6.63;;
25569;SDS011;17955;45.542;9.238;2023-04-06T12:45:07;12.35;;;6.57;;
25569;SDS011;17955;45.542;9.238;2023-04-06T12:47:34;10.55;;;5.63;;
25569;SDS011;17955;45.542;9.238;2023-04-06T12:50:04;11.27;;;6.00;;
25569;SDS011;17955;45.542;9.238;2023-04-06T12:52:32;8.75;;;5.68;;
25569;SDS011;17955;45.542;9.238;2023-04-06T12:55:00;10.82;;;6.10;;
25569;SDS011;17955;45.542;9.238;2023-04-06T12:57:27;10.23;;;6.13;;
25569;SDS011;17955;45.542;9.238;2023-04-06T12:59:56;13.13;;;5.82;;
25569;SDS011;17955;45.542;9.238;2023-04-06T13:02:23;9.68;;;6.05;;
25569;SDS011;17955;45.542;9.238;2023-04-06T13:04:51;10.45;;;5.60;;
25569;SDS011;17955;45.542;9.238;2023-04-06T13:07:20;10.95;;;6.20;;
25569;SDS011;17955;45.542;9.238;2023-04-06T13:09:47;12.60;;;6.47;;
25569;SDS011;17955;45.542;9.238;2023-04-06T13:12:15;14.02;;;7.07;;
25569;SDS011;17955;45.542;9.238;2023-04-06T13:14:42;13.18;;;6.80;;
25569;SDS011;17955;45.542;9.238;2023-04-06T13:17:12;13.77;;;6.15;;
25569;SDS011;17955;45.542;9.238;2023-04-06T13:19:40;11.55;;;5.90;;
25569;SDS011;17955;45.542;9.238;2023-04-06T13:22:07;8.50;;;5.88;;
25569;SDS011;17955;45.542;9.238;2023-04-06T13:24:36;12.43;;;6.85;;
25569;SDS011;17955;45.542;9.238;2023-04-06T13:27:03;14.70;;;6.18;;
25569;SDS011;17955;45.542;9.238;2023-04-06T13:29:31;18.70;;;7.25;;
25569;SDS011;17955;45.542;9.238;2023-04-06T13:31:59;13.07;;;7.45;;
25569;SDS011;17955;45.542;9.238;2023-04-06T13:34:26;12.15;;;6.13;;
25569;SDS011;17955;45.542;9.238;2023-04-06T13:36:54;12.38;;;6.55;;
25569;SDS011;17955;45.542;9.238;2023-04-06T13:39:21;14.10;;;6.75;;
25569;SDS011;17955;45.542;9.238;2023-04-06T13:41:50;10.55;;;5.32;;
25569;SDS011;17955;45.542;9.238;2023-04-06T13:44:17;9.27;;;5.78;;
25569;SDS011;17955;45.542;9.238;2023-04-06T13:46:45;10.20;;;5.82;;
25569;SDS011;17955;45.542;9.238;2023-04-06T13:49:13;10.32;;;6.10;;
25569;SDS011;17955;45.542;9.238;2023-04-06T13:51:40;15.52;;;6.88;;
25569;SDS011;17955;45.542;9.238;2023-04-06T13:54:07;12.30;;;6.80;;
25569;SDS011;17955;45.542;9.238;2023-04-06T13:56:35;11.20;;;6.82;;
25569;SDS011;17955;45.542;9.238;2023-04-06T13:59:03;13.57;;;6.60;;
25569;SDS011;17955;45.542;9.238;2023-04-06T14:01:31;11.80;;;6.43;;
25569;SDS011;17955;45.542;9.238;2023-04-06T14:03:58;11.07;;;7.00;;
25569;SDS011;17955;45.542;9.238;2023-04-06T14:06:25;9.32;;;4.97;;
25569;SDS011;17955;45.542;9.238;2023-04-06T14:08:53;13.98;;;7.22;;
25569;SDS011;17955;45.542;9.238;2023-04-06T14:11:20;9.88;;;6.70;;
25569;SDS011;17955;45.542;9.238;2023-04-06T14:13:47;12.52;;;6.97;;
25569;SDS011;17955;45.542;9.238;2023-04-06T14:16:16;12.95;;;6.72;;
25569;SDS011;17955;45.542;9.238;2023-04-06T14:18:44;12.82;;;6.90;;
25569;SDS011;17955;45.542;9.238;2023-04-06T14:21:12;11.65;;;6.35;;
25569;SDS011;17955;45.542;9.238;2023-04-06T14:23:40;12.43;;;6.50;;
25569;SDS011;17955;45.542;9.238;2023-04-06T14:26:07;10.77;;;6.18;;
25569;SDS011;17955;45.542;9.238;2023-04-06T14:28:35;12.93;;;6.35;;
25569;SDS011;17955;45.542;9.238;2023-04-06T14:31:10;9.73;;;6.03;;
25569;SDS011;17955;45.542;9.238;2023-04-06T14:33:39;12.60;;;6.47;;
25569;SDS011;17955;45.542;9.238;2023-04-06T14:36:06;10.90;;;6.45;;
25569;SDS011;17955;45.542;9.238;2023-04-06T14:38:37;16.38;;;6.60;;
25569;SDS011;17955;45.542;9.238;2023-04-06T14:41:06;11.05;;;6.15;;
25569;SDS011;17955;45.542;9.238;2023-04-06T14:43:33;12.80;;;6.35;;
25569;SDS011;17955;45.542;9.238;2023-04-06T14:46:01;14.73;;;6.50;;
25569;SDS011;17955;45.542;9.238;2023-04-06T14:48:28;12.95;;;6.60;;
25569;SDS011;17955;45.542;9.238;2023-04-06T14:50:57;12.68;;;6.38;;
25569;SDS011;17955;45.542;9.238;2023-04-06T14:53:25;11.65;;;6.13;;